Time;durP1;ratioP1;P1;durP2;ratioP2;P2;SDS_P1;SDS_P2;PMS_P1;PMS_P2;Temp;Humidity;BMP_temperature;BMP_pressure;BME280_temperature;BME280_humidity;BME280_pressure;Samples;Min_cycle;Max_cycle;Signal;HPM_P1;HPM_P2
2022/06/23 00:00:58;;;;;;;26.40;21.97;;;19.20;99.90;;;;;;5049401;28;20479;-69
2022/06/23 00:03:27;;;;;;;31.80;23.90;;;19.20;99.90;;;;;;5049604;28;20464;-68
2022/06/23 00:05:58;;;;;;;23.20;19.87;;;19.10;99.90;;;;;;5049595;28;20448;-68
2022/06/23 00:08:25;;;;;;;27.90;22.23;;;19.00;99.90;;;;;;5049742;28;20464;-68
2022/06/23 00:10:56;;;;;;;23.83;20.67;;;19.00;99.90;;;;;;5049159;28;20540;-67
2022/06/23 00:13:27;;;;;;;24.80;22.10;;;19.00;99.90;;;;;;5049285;28;20479;-68
2022/06/23 00:15:56;;;;;;;25.87;20.93;;;18.90;99.90;;;;;;5049192;28;20459;-68
2022/06/23 00:18:26;;;;;;;28.10;19.83;;;18.90;99.90;;;;;;5049514;28;20451;-68
2022/06/23 00:20:56;;;;;;;26.30;19.57;;;18.80;99.90;;;;;;5049269;28;20917;-68
2022/06/23 00:23:26;;;;;;;23.80;19.90;;;18.80;99.90;;;;;;5049214;28;21014;-67
2022/06/23 00:25:58;;;;;;;28.50;20.73;;;18.80;99.90;;;;;;5049273;28;20451;-67
2022/06/23 00:28:29;;;;;;;27.93;21.13;;;18.80;99.90;;;;;;5044192;28;20444;-68
2022/06/23 00:31:00;;;;;;;22.93;20.07;;;18.80;99.90;;;;;;5048141;28;20910;-68
2022/06/23 00:33:29;;;;;;;26.00;19.83;;;18.80;99.90;;;;;;5043869;28;20526;-68
2022/06/23 00:35:57;;;;;;;21.80;18.37;;;18.70;99.90;;;;;;5049128;28;20914;-68
2022/06/23 00:38:30;;;;;;;21.03;18.60;;;18.70;99.90;;;;;;5048875;28;20478;-68
2022/06/23 00:40:59;;;;;;;33.10;21.50;;;18.70;99.90;;;;;;5048973;28;20485;-68
2022/06/23 00:43:28;;;;;;;25.03;20.13;;;18.60;99.90;;;;;;5049095;28;20468;-68
2022/06/23 00:46:05;;;;;;;27.00;20.50;;;18.60;99.90;;;;;;5049159;28;20455;-67
2022/06/23 00:48:37;;;;;;;22.00;19.63;;;18.60;99.90;;;;;;5048995;28;20455;-68
2022/06/23 00:51:10;;;;;;;27.33;20.40;;;18.60;99.90;;;;;;5048925;28;20450;-68
2022/06/23 00:53:43;;;;;;;24.67;22.13;;;18.60;99.90;;;;;;5049067;28;20989;-67
2022/06/23 00:56:20;;;;;;;24.50;20.33;;;18.60;99.90;;;;;;5049063;28;20454;-67
2022/06/23 00:58:52;;;;;;;23.10;19.20;;;18.60;99.90;;;;;;5048974;28;20448;-68
2022/06/23 01:01:27;;;;;;;23.93;20.53;;;18.50;99.90;;;;;;5048870;28;20953;-67
2022/06/23 01:04:00;;;;;;;23.67;19.73;;;18.50;99.90;;;;;;5049127;28;20472;-67
2022/06/23 01:06:36;;;;;;;23.43;19.17;;;18.50;99.90;;;;;;5049049;28;20448;-68
2022/06/23 01:09:14;;;;;;;20.60;18.50;;;18.40;99.90;;;;;;5051941;28;20456;-68
2022/06/23 01:11:46;;;;;;;25.53;19.13;;;18.40;99.90;;;;;;5052431;28;20430;-69
2022/06/23 01:14:22;;;;;;;25.63;20.73;;;18.40;99.90;;;;;;5052674;28;20447;-68
2022/06/23 01:16:53;;;;;;;23.50;21.17;;;18.40;99.90;;;;;;5052652;28;20448;-67
2022/06/23 01:19:47;;;;;;;24.90;22.17;;;18.40;99.90;;;;;;5052532;28;20454;-68
2022/06/23 01:22:20;;;;;;;26.70;22.47;;;18.30;99.90;;;;;;5052408;28;20486;-68
2022/06/23 01:24:55;;;;;;;26.03;19.70;;;18.30;99.90;;;;;;5052501;28;20456;-68
2022/06/23 01:27:27;;;;;;;22.13;19.33;;;18.30;99.90;;;;;;5052496;28;20443;-68
2022/06/23 01:30:03;;;;;;;25.93;19.63;;;18.40;99.90;;;;;;5052083;28;20530;-68
2022/06/23 01:32:35;;;;;;;23.30;19.97;;;18.30;99.90;;;;;;5052201;28;20981;-67
2022/06/23 01:35:08;;;;;;;21.97;18.60;;;18.30;99.90;;;;;;5052453;28;20451;-68
2022/06/23 01:37:41;;;;;;;22.63;19.70;;;18.20;99.90;;;;;;5052494;28;20444;-68
2022/06/23 01:40:17;;;;;;;22.93;19.93;;;18.10;99.90;;;;;;5051923;28;20454;-68
2022/06/23 01:42:48;;;;;;;22.43;20.13;;;18.10;99.90;;;;;;5052169;28;20458;-68
2022/06/23 01:45:22;;;;;;;25.57;18.63;;;18.20;99.90;;;;;;5052222;28;20454;-68
2022/06/23 01:47:56;;;;;;;22.27;20.07;;;18.20;99.90;;;;;;5052405;28;20446;-68
2022/06/23 01:50:36;;;;;;;25.37;19.30;;;18.10;99.90;;;;;;5051820;28;20818;-68
2022/06/23 01:53:26;;;;;;;23.00;20.70;;;18.10;99.90;;;;;;5052082;28;20494;-68
2022/06/23 01:56:28;;;;;;;24.67;21.30;;;18.00;99.90;;;;;;5049099;28;20550;-68
2022/06/23 01:59:06;;;;;;;24.60;20.90;;;18.00;99.90;;;;;;5049105;28;20452;-68
2022/06/23 02:01:43;;;;;;;24.10;21.20;;;17.90;99.90;;;;;;5051347;28;20885;-67
2022/06/23 02:04:17;;;;;;;23.00;20.80;;;17.90;99.90;;;;;;5052219;28;20452;-68
2022/06/23 02:06:50;;;;;;;22.87;20.10;;;17.90;99.90;;;;;;5052029;28;20452;-68
2022/06/23 02:09:24;;;;;;;24.00;19.50;;;17.80;99.90;;;;;;5051619;28;20487;-69
2022/06/23 02:11:53;;;;;;;21.77;19.57;;;17.80;99.90;;;;;;5051267;28;20985;-68
2022/06/23 02:14:42;;;;;;;23.83;21.30;;;17.90;99.90;;;;;;5051678;28;20452;-67
2022/06/23 02:17:27;;;;;;;26.27;21.77;;;17.90;99.90;;;;;;5051762;28;20455;-68
2022/06/23 02:19:56;;;;;;;22.93;19.90;;;17.80;99.90;;;;;;5051031;28;20945;-68
2022/06/23 02:22:28;;;;;;;23.17;20.17;;;17.80;99.90;;;;;;5051184;28;20492;-67
2022/06/23 02:25:04;;;;;;;20.93;18.53;;;17.70;99.90;;;;;;5051699;28;20995;-69
2022/06/23 02:27:46;;;;;;;19.60;17.50;;;17.80;99.90;;;;;;5051487;28;20454;-68
2022/06/23 02:30:19;;;;;;;21.80;19.43;;;17.70;99.90;;;;;;5051082;28;20452;-68
2022/06/23 02:32:58;;;;;;;25.47;20.50;;;17.60;99.90;;;;;;5051022;28;20973;-68
2022/06/23 02:35:33;;;;;;;26.10;23.30;;;17.70;99.90;;;;;;5051126;28;20988;-68
2022/06/23 02:38:07;;;;;;;27.70;22.80;;;17.70;99.90;;;;;;5051235;28;20448;-67
2022/06/23 02:40:40;;;;;;;25.27;20.43;;;17.70;99.90;;;;;;5050731;28;20444;-68
2022/06/23 02:43:20;;;;;;;21.90;18.90;;;17.70;99.90;;;;;;5050737;28;20468;-68
2022/06/23 02:46:21;;;;;;;20.80;17.70;;;17.70;99.90;;;;;;5050927;28;20938;-68
2022/06/23 02:49:08;;;;;;;26.93;20.70;;;17.60;99.90;;;;;;5050773;28;20526;-68
2022/06/23 02:51:52;;;;;;;33.23;21.57;;;17.60;99.90;;;;;;5050213;28;20533;-68
2022/06/23 02:54:36;;;;;;;37.53;22.13;;;17.60;99.90;;;;;;5050877;28;20451;-68
2022/06/23 02:57:19;;;;;;;43.43;23.50;;;17.60;99.90;;;;;;5050767;28;20466;-67
2022/06/23 02:59:51;;;;;;;27.30;21.90;;;17.60;99.90;;;;;;5050273;28;20459;-67
2022/06/23 03:02:26;;;;;;;25.03;21.10;;;17.60;99.90;;;;;;5050777;28;20456;-68
2022/06/23 03:04:59;;;;;;;22.83;20.30;;;17.60;99.90;;;;;;5050648;28;20898;-68
2022/06/23 03:07:32;;;;;;;25.63;20.40;;;17.50;99.90;;;;;;5050575;28;20456;-68
2022/06/23 03:10:05;;;;;;;21.47;19.03;;;17.50;99.90;;;;;;5050060;28;20443;-68
2022/06/23 03:12:40;;;;;;;25.97;22.10;;;17.40;99.90;;;;;;5050182;28;20488;-68
2022/06/23 03:15:13;;;;;;;24.27;21.50;;;17.40;99.90;;;;;;5050365;28;20439;-68
2022/06/23 03:17:45;;;;;;;55.60;23.70;;;17.30;99.90;;;;;;5050492;28;20448;-68
2022/06/23 03:20:20;;;;;;;22.50;20.10;;;17.40;99.90;;;;;;5050363;28;20448;-68
2022/06/23 03:22:53;;;;;;;57.63;21.10;;;17.50;99.90;;;;;;5050321;28;20926;-69
2022/06/23 03:25:24;;;;;;;28.60;21.33;;;17.50;99.90;;;;;;5050672;28;20455;-68
2022/06/23 03:27:58;;;;;;;21.30;19.10;;;17.50;99.90;;;;;;5050742;28;20444;-68
2022/06/23 03:30:33;;;;;;;28.67;20.03;;;17.50;99.90;;;;;;5049507;28;21017;-67
2022/06/23 03:33:08;;;;;;;33.50;21.33;;;17.50;99.90;;;;;;5050064;28;20495;-68
2022/06/23 03:35:41;;;;;;;29.90;21.73;;;17.60;99.90;;;;;;5050301;28;20465;-68
2022/06/23 03:38:17;;;;;;;26.77;20.57;;;17.60;99.90;;;;;;5050304;28;20450;-68
2022/06/23 03:43:40;;;;;;;28.47;21.60;;;17.80;99.90;;;;;;5049888;28;20435;-68
2022/06/23 03:46:17;;;;;;;26.50;20.83;;;17.90;99.90;;;;;;5050056;28;20820;-68
2022/06/23 03:48:50;;;;;;;22.57;20.17;;;17.90;99.90;;;;;;5050037;28;20454;-68
2022/06/23 03:51:22;;;;;;;24.40;20.20;;;18.00;99.90;;;;;;5049395;28;20478;-68
2022/06/23 03:53:55;;;;;;;25.00;19.50;;;18.00;99.90;;;;;;5049830;28;20974;-67
2022/06/23 03:56:26;;;;;;;23.20;20.27;;;18.00;99.90;;;;;;5049667;28;20534;-68
2022/06/23 03:58:57;;;;;;;19.77;17.77;;;18.00;99.90;;;;;;5049858;28;20443;-67
2022/06/23 04:01:30;;;;;;;19.33;17.40;;;18.00;99.90;;;;;;5049102;28;20810;-67
2022/06/23 04:04:00;;;;;;;21.33;19.13;;;18.00;99.90;;;;;;5049447;28;20439;-68
2022/06/23 04:06:37;;;;;;;22.60;20.20;;;18.00;99.90;;;;;;5049405;28;20451;-68
2022/06/23 04:09:10;;;;;;;27.00;19.50;;;18.00;99.90;;;;;;5049257;28;20466;-68
2022/06/23 04:11:48;;;;;;;23.27;19.43;;;18.00;99.90;;;;;;5049161;28;20571;-68
2022/06/23 04:14:28;;;;;;;22.27;19.87;;;17.90;99.90;;;;;;5049356;28;21109;-68
2022/06/23 04:17:05;;;;;;;23.77;19.80;;;17.90;99.90;;;;;;5049408;28;20447;-68
2022/06/23 04:19:34;;;;;;;34.60;23.90;;;17.90;99.90;;;;;;5048057;28;20934;-69
2022/06/23 04:22:08;;;;;;;21.67;18.80;;;17.90;99.90;;;;;;5049079;28;20467;-70
2022/06/23 04:24:37;;;;;;;23.87;17.97;;;18.00;99.90;;;;;;5049637;28;20448;-71
2022/06/23 04:27:10;;;;;;;19.10;17.10;;;18.00;99.90;;;;;;5048720;28;20440;-70
2022/06/23 04:29:39;;;;;;;22.07;18.20;;;18.00;99.90;;;;;;5046843;28;21028;-71
2022/06/23 04:32:09;;;;;;;23.23;18.13;;;18.00;99.90;;;;;;5047186;28;20734;-68
2022/06/23 04:34:51;;;;;;;19.73;17.73;;;18.10;99.90;;;;;;5043808;28;20448;-68
2022/06/23 04:37:27;;;;;;;22.17;19.40;;;18.10;99.90;;;;;;5038921;28;20443;-68
2022/06/23 04:40:06;;;;;;;25.63;22.80;;;18.10;99.90;;;;;;5049184;28;20450;-68
2022/06/23 04:42:34;;;;;;;21.67;19.33;;;18.00;99.90;;;;;;5051912;28;20470;-68
2022/06/23 04:45:36;;;;;;;22.47;18.23;;;18.00;99.90;;;;;;5053392;28;20531;-72
2022/06/23 04:48:08;;;;;;;20.50;18.03;;;18.10;99.90;;;;;;5053313;28;20454;-69
2022/06/23 04:50:46;;;;;;;21.10;17.43;;;18.10;99.90;;;;;;5052704;28;20904;-69
2022/06/23 04:53:43;;;;;;;20.20;17.43;;;18.00;99.90;;;;;;5051599;28;20955;-69
2022/06/23 04:56:19;;;;;;;25.60;19.33;;;18.00;99.90;;;;;;5048532;28;20454;-66
2022/06/23 04:58:51;;;;;;;23.13;19.53;;;18.10;99.90;;;;;;5048286;28;20540;-68
2022/06/23 05:01:22;;;;;;;20.67;18.70;;;18.00;99.90;;;;;;5052135;28;20439;-68
2022/06/23 05:03:54;;;;;;;24.70;21.13;;;18.10;99.90;;;;;;5053125;28;20448;-66
2022/06/23 05:06:30;;;;;;;25.10;20.47;;;18.10;99.90;;;;;;5046974;28;20474;-70
2022/06/23 05:09:02;;;;;;;25.07;20.17;;;18.20;99.90;;;;;;5042433;28;20997;-68
2022/06/23 05:11:31;;;;;;;25.63;19.73;;;18.20;99.90;;;;;;5050967;28;20452;-69
2022/06/23 05:14:03;;;;;;;21.43;19.13;;;18.40;99.90;;;;;;5052093;28;20450;-69
2022/06/23 05:16:36;;;;;;;26.90;20.30;;;18.40;99.90;;;;;;5052711;28;20525;-68
2022/06/23 05:19:16;;;;;;;22.63;20.27;;;18.50;99.90;;;;;;5050658;28;20440;-68
2022/06/23 05:21:46;;;;;;;27.80;21.93;;;18.60;99.90;;;;;;5050482;28;20463;-68
2022/06/23 05:24:18;;;;;;;23.73;21.00;;;18.70;99.90;;;;;;5052222;28;20451;-69
2022/06/23 05:26:50;;;;;;;24.10;21.43;;;18.80;99.90;;;;;;5052713;28;20826;-65
2022/06/23 05:29:20;;;;;;;23.70;20.17;;;18.80;99.90;;;;;;5052519;28;20534;-68
2022/06/23 05:31:50;;;;;;;23.73;20.23;;;18.90;99.90;;;;;;5052112;28;20492;-68
2022/06/23 05:34:22;;;;;;;21.77;19.33;;;19.00;99.90;;;;;;5052266;28;20935;-69
2022/06/23 05:36:52;;;;;;;22.70;20.27;;;19.10;99.90;;;;;;5052582;28;20475;-68
2022/06/23 05:39:26;;;;;;;22.30;20.00;;;19.20;99.90;;;;;;5052307;28;20448;-68
2022/06/23 05:41:58;;;;;;;21.80;19.27;;;19.20;99.90;;;;;;5052101;28;20464;-68
2022/06/23 05:44:29;;;;;;;24.03;20.90;;;19.30;99.90;;;;;;5052315;28;20491;-69
2022/06/23 05:46:59;;;;;;;23.07;20.00;;;19.40;99.90;;;;;;5052170;28;20456;-68
2022/06/23 05:49:30;;;;;;;24.57;19.80;;;19.40;99.90;;;;;;5052210;28;20456;-68
2022/06/23 05:52:00;;;;;;;25.00;20.30;;;19.50;99.90;;;;;;5051650;28;20986;-68
2022/06/23 05:54:33;;;;;;;21.53;18.37;;;19.60;99.90;;;;;;5051246;28;20950;-68
2022/06/23 05:57:11;;;;;;;25.37;19.20;;;19.70;99.90;;;;;;5052015;28;20444;-68
2022/06/23 05:59:55;;;;;;;21.30;19.00;;;19.80;99.90;;;;;;5050712;28;20448;-68
2022/06/23 06:02:28;;;;;;;19.63;17.57;;;19.90;99.90;;;;;;5050090;28;20472;-68
2022/06/23 06:04:58;;;;;;;19.47;16.73;;;20.00;99.90;;;;;;5050344;28;20452;-69
2022/06/23 06:07:28;;;;;;;20.80;16.20;;;20.10;99.90;;;;;;5050019;28;20467;-68
2022/06/23 06:09:56;;;;;;;16.80;14.70;;;20.20;99.90;;;;;;5049698;28;20456;-69
2022/06/23 06:12:28;;;;;;;17.90;15.73;;;20.30;99.90;;;;;;5050827;28;20480;-68
2022/06/23 06:14:59;;;;;;;19.47;15.57;;;20.30;99.90;;;;;;5051329;28;20458;-68
2022/06/23 06:17:28;;;;;;;17.63;14.90;;;20.30;99.90;;;;;;5051732;28;20506;-68
2022/06/23 06:19:59;;;;;;;18.53;15.70;;;20.30;99.90;;;;;;5051276;28;20448;-71
2022/06/23 06:22:40;;;;;;;19.03;15.43;;;20.30;99.90;;;;;;5051285;28;20459;-68
2022/06/23 06:25:19;;;;;;;17.10;14.83;;;20.30;99.90;;;;;;5051553;28;20467;-69
2022/06/23 06:27:46;;;;;;;20.03;13.90;;;20.30;99.90;;;;;;5051504;28;20452;-68
2022/06/23 06:30:16;;;;;;;18.87;13.30;;;20.40;99.90;;;;;;5050953;28;20446;-68
2022/06/23 06:32:44;;;;;;;14.43;13.13;;;20.50;99.90;;;;;;5050938;28;21013;-68
2022/06/23 06:35:20;;;;;;;16.23;12.37;;;20.50;99.90;;;;;;5051466;28;20459;-68
2022/06/23 06:37:52;;;;;;;16.90;11.67;;;20.60;99.90;;;;;;5051336;28;20454;-68
2022/06/23 06:40:21;;;;;;;17.80;11.67;;;20.70;99.90;;;;;;5050830;28;20942;-69
2022/06/23 06:42:53;;;;;;;16.40;12.70;;;20.70;99.90;;;;;;5050883;28;20475;-67
2022/06/23 06:45:23;;;;;;;13.40;10.10;;;20.70;99.90;;;;;;5050958;28;20470;-68
2022/06/23 06:47:50;;;;;;;15.87;10.60;;;20.70;99.90;;;;;;5050926;28;20961;-68
2022/06/23 06:50:34;;;;;;;15.10;9.67;;;20.80;99.90;;;;;;5050727;28;20535;-68
2022/06/23 06:53:07;;;;;;;17.50;9.47;;;20.80;99.90;;;;;;5050834;28;20487;-68
2022/06/23 06:55:42;;;;;;;15.13;10.50;;;20.80;99.90;;;;;;5050953;28;20440;-69
2022/06/23 06:58:15;;;;;;;13.03;9.10;;;20.80;99.90;;;;;;5050995;28;20505;-68
2022/06/23 07:00:48;;;;;;;13.23;10.47;;;20.80;99.90;;;;;;5050463;28;20981;-68
2022/06/23 07:03:18;;;;;;;14.73;11.00;;;20.90;99.90;;;;;;5051015;28;20470;-68
2022/06/23 07:05:50;;;;;;;12.53;9.63;;;21.20;99.90;;;;;;5049954;28;20452;-69
2022/06/23 07:08:23;;;;;;;17.00;9.83;;;21.40;99.90;;;;;;5050576;28;20452;-67
2022/06/23 07:10:56;;;;;;;11.20;8.77;;;21.70;99.90;;;;;;5050581;28;20451;-69
2022/06/23 07:13:29;;;;;;;12.90;9.13;;;22.20;99.90;;;;;;5050883;28;20839;-69
2022/06/23 07:16:01;;;;;;;11.07;7.77;;;22.60;99.90;;;;;;5050928;28;20458;-69
2022/06/23 07:18:33;;;;;;;11.50;7.87;;;22.80;99.90;;;;;;5050812;28;20444;-66
2022/06/23 07:21:04;;;;;;;12.30;7.73;;;22.90;99.90;;;;;;5050625;28;20448;-69
2022/06/23 07:23:37;;;;;;;12.63;7.90;;;23.10;99.90;;;;;;5050666;28;21001;-70
2022/06/23 07:26:30;;;;;;;10.03;7.80;;;23.30;99.90;;;;;;5050748;28;20443;-66
2022/06/23 07:29:03;;;;;;;10.43;7.40;;;23.30;99.90;;;;;;5050460;28;20447;-68
2022/06/23 07:31:40;;;;;;;11.13;7.10;;;23.50;99.90;;;;;;5050097;28;20451;-68
2022/06/23 07:34:11;;;;;;;11.23;7.73;;;23.70;99.90;;;;;;5050356;28;20514;-69
2022/06/23 07:36:43;;;;;;;9.73;6.30;;;23.70;99.90;;;;;;5050198;28;20941;-69
2022/06/23 07:39:16;;;;;;;7.93;6.40;;;23.70;99.90;;;;;;5050286;28;20831;-68
2022/06/23 07:41:48;;;;;;;7.77;6.00;;;23.60;99.90;;;;;;5049690;28;20475;-67
2022/06/23 07:44:20;;;;;;;7.57;5.90;;;23.60;99.90;;;;;;5050295;28;21007;-68
2022/06/23 07:46:47;;;;;;;16.40;6.97;;;23.60;99.90;;;;;;5050202;28;20444;-68
2022/06/23 07:49:14;;;;;;;11.50;6.20;;;23.50;99.90;;;;;;5049851;28;20440;-69
2022/06/23 07:51:42;;;;;;;15.20;6.70;;;23.50;99.90;;;;;;5049589;28;20829;-68
2022/06/23 07:54:15;;;;;;;11.50;6.83;;;23.50;99.90;;;;;;5049688;28;20476;-69
2022/06/23 07:56:43;;;;;;;13.03;7.30;;;23.30;99.90;;;;;;5050097;28;20444;-69
2022/06/23 07:59:13;;;;;;;8.70;6.10;;;23.30;99.90;;;;;;5049937;28;20452;-69
2022/06/23 08:01:44;;;;;;;9.90;6.50;;;23.30;99.90;;;;;;5048969;28;20458;-69
2022/06/23 08:04:18;;;;;;;12.40;6.70;;;23.30;99.90;;;;;;5049687;28;20213;-70
2022/06/23 08:06:47;;;;;;;10.80;6.47;;;23.40;99.90;;;;;;5049947;28;20451;-69
2022/06/23 08:09:20;;;;;;;10.80;6.43;;;23.40;99.90;;;;;;5049966;28;20554;-69
2022/06/23 08:14:36;;;;;;;12.30;6.70;;;23.40;99.90;;;;;;5049642;28;20471;-70
2022/06/23 08:17:06;;;;;;;10.00;6.33;;;23.50;99.90;;;;;;5052913;28;20454;-69
2022/06/23 08:19:41;;;;;;;12.07;6.57;;;23.60;99.90;;;;;;5056633;28;20458;-69
2022/06/23 08:22:12;;;;;;;10.83;5.63;;;23.60;99.90;;;;;;5056138;28;20855;-70
2022/06/23 08:24:41;;;;;;;10.73;5.77;;;23.80;99.90;;;;;;5056213;28;20450;-69
2022/06/23 08:27:13;;;;;;;8.73;5.13;;;23.80;99.90;;;;;;5056011;28;21007;-68
2022/06/23 08:29:44;;;;;;;9.70;5.60;;;23.90;99.90;;;;;;5056313;28;20474;-69
2022/06/23 08:32:12;;;;;;;10.70;5.93;;;24.00;99.90;;;;;;5055767;28;20470;-69
2022/06/23 08:34:42;;;;;;;10.20;5.70;;;24.00;99.90;;;;;;5050722;28;20488;-69
2022/06/23 08:37:16;;;;;;;13.67;6.40;;;23.90;99.90;;;;;;5053915;28;20441;-69
2022/06/23 08:39:50;;;;;;;11.20;5.80;;;24.10;99.90;;;;;;5054714;28;20448;-68
2022/06/23 08:42:23;;;;;;;8.60;5.30;;;24.20;99.90;;;;;;5054985;28;20550;-70
2022/06/23 08:44:58;;;;;;;10.70;4.50;;;24.40;99.90;;;;;;5055177;28;20439;-70
2022/06/23 08:47:36;;;;;;;9.90;4.00;;;24.60;99.90;;;;;;5055146;28;20461;-69
2022/06/23 08:50:08;;;;;;;9.07;5.90;;;24.70;99.90;;;;;;5054616;28;20452;-69
2022/06/23 08:52:40;;;;;;;8.53;4.63;;;24.80;99.90;;;;;;5054885;28;20845;-69
2022/06/23 08:55:11;;;;;;;11.57;4.70;;;25.00;99.90;;;;;;5055175;28;20455;-69
2022/06/23 08:57:46;;;;;;;8.77;4.87;;;25.00;99.90;;;;;;5054953;28;20457;-69
2022/06/23 09:00:20;;;;;;;8.70;5.10;;;25.10;99.90;;;;;;5054520;28;20451;-69
2022/06/23 09:02:52;;;;;;;9.60;5.10;;;25.20;99.90;;;;;;5054761;28;20467;-69
2022/06/23 09:05:25;;;;;;;8.97;4.67;;;25.40;99.90;;;;;;5054967;28;20462;-68
2022/06/23 09:08:01;;;;;;;10.87;4.30;;;25.50;99.90;;;;;;5054520;28;20513;-69
2022/06/23 09:10:38;;;;;;;11.33;4.27;;;25.60;99.90;;;;;;5054755;28;20452;-69
2022/06/23 09:13:17;;;;;;;7.80;4.60;;;25.60;99.90;;;;;;5054398;28;20498;-69
2022/06/23 09:16:08;;;;;;;8.67;4.90;;;25.80;99.90;;;;;;5054551;28;20505;-70
2022/06/23 09:19:03;;;;;;;5.70;3.40;;;25.90;99.90;;;;;;5055109;28;20451;-70
2022/06/23 09:21:44;;;;;;;7.90;4.43;;;26.00;99.90;;;;;;5054174;28;20553;-70
2022/06/23 09:24:48;;;;;;;8.37;4.20;;;26.10;99.90;;;;;;5054876;28;20448;-71
2022/06/23 09:27:21;;;;;;;6.00;4.00;;;26.30;99.90;;;;;;5054415;28;20450;-70
2022/06/23 09:29:56;;;;;;;9.80;4.03;;;26.50;99.90;;;;;;5050289;28;20821;-69
2022/06/23 09:32:43;;;;;;;9.50;4.60;;;26.70;99.90;;;;;;5051773;28;20502;-68
2022/06/23 09:35:41;;;;;;;12.97;5.53;;;26.70;99.90;;;;;;5051500;28;20512;-69
2022/06/23 09:38:25;;;;;;;11.17;4.70;;;26.80;99.90;;;;;;5051013;28;20444;-69
2022/06/23 09:41:02;;;;;;;7.80;4.50;;;26.90;99.90;;;;;;5050991;28;20436;-70
2022/06/23 09:43:52;;;;;;;10.87;5.23;;;26.90;99.90;;;;;;5051565;28;20547;-70
2022/06/23 09:46:44;;;;;;;10.10;4.87;;;27.00;99.90;;;;;;5050996;28;20825;-70
2022/06/23 09:49:27;;;;;;;12.40;4.77;;;27.00;99.90;;;;;;5051311;28;20463;-70
2022/06/23 09:52:44;;;;;;;9.23;4.60;;;27.00;99.90;;;;;;5050817;28;20466;-69
2022/06/23 09:55:26;;;;;;;9.53;5.00;;;27.20;99.90;;;;;;4970148;28;20446;-70
2022/06/23 09:58:18;;;;;;;7.83;4.30;;;27.30;99.90;;;;;;4969579;28;20467;-69
2022/06/23 10:00:52;;;;;;;7.47;4.03;;;27.50;99.90;;;;;;5037859;28;20458;-70
2022/06/23 10:03:32;;;;;;;9.83;4.40;;;28.00;99.90;;;;;;5050798;28;20468;-70
2022/06/23 10:06:16;;;;;;;8.50;4.30;;;28.80;99.90;;;;;;5051178;28;20436;-70
2022/06/23 10:08:52;;;;;;;6.10;3.50;;;29.90;99.90;;;;;;5050707;28;20462;-70
2022/06/23 10:12:00;;;;;;;5.70;4.10;;;31.20;99.90;;;;;;5050868;28;20448;-70
2022/06/23 10:14:40;;;;;;;8.80;3.60;;;31.70;99.70;;;;;;5050529;28;21241;-69
2022/06/23 10:17:31;;;;;;;8.00;4.43;;;31.90;98.30;;;;;;5050624;28;20462;-69
2022/06/23 10:20:28;;;;;;;5.33;3.53;;;32.10;95.80;;;;;;5050282;28;20472;-69
2022/06/23 10:23:38;;;;;;;9.47;4.67;;;32.80;96.10;;;;;;5049955;28;20468;-70
2022/06/23 10:26:25;;;;;;;6.63;3.50;;;33.50;99.30;;;;;;4985147;28;20550;-69
2022/06/23 10:29:10;;;;;;;5.60;3.27;;;34.00;95.10;;;;;;4977856;28;20991;-70
2022/06/23 10:31:52;;;;;;;6.27;3.80;;;34.30;92.90;;;;;;5028293;28;20472;-70
2022/06/23 10:34:39;;;;;;;6.60;3.37;;;34.20;91.30;;;;;;5042460;28;20494;-71
2022/06/23 10:37:37;;;;;;;5.93;3.80;;;34.50;92.40;;;;;;5042599;28;20459;-69
2022/06/23 10:40:33;;;;;;;8.87;4.00;;;33.40;90.30;;;;;;5026021;28;20476;-68
2022/06/23 10:43:13;;;;;;;10.53;4.20;;;32.20;92.50;;;;;;5040358;28;20551;-71
2022/06/23 10:45:50;;;;;;;8.57;3.73;;;32.70;92.40;;;;;;5042904;28;20444;-68
2022/06/23 10:48:38;;;;;;;8.73;4.37;;;32.50;92.70;;;;;;5040465;28;20451;-69
2022/06/23 10:51:18;;;;;;;7.93;4.23;;;32.70;93.50;;;;;;5037387;28;20453;-71
2022/06/23 10:54:22;;;;;;;7.50;4.50;;;33.10;93.00;;;;;;5039147;28;21306;-68
2022/06/23 10:57:20;;;;;;;6.70;3.77;;;32.40;93.50;;;;;;5038381;28;20449;-70
2022/06/23 11:00:02;;;;;;;6.30;4.57;;;32.40;92.90;;;;;;5040807;28;20447;-69
2022/06/23 11:03:08;;;;;;;7.70;4.20;;;32.20;93.50;;;;;;5041098;28;20469;-71
2022/06/23 11:05:54;;;;;;;7.73;4.30;;;32.90;95.90;;;;;;5041183;28;20574;-68
2022/06/23 11:08:45;;;;;;;185.60;38.63;;;33.60;96.00;;;;;;5040852;28;20493;-69
2022/06/23 11:11:28;;;;;;;9.57;4.80;;;34.60;92.30;;;;;;5048764;28;20444;-71
2022/06/23 11:14:02;;;;;;;8.57;4.30;;;35.30;91.00;;;;;;5050036;28;20883;-70
2022/06/23 11:16:39;;;;;;;7.90;4.23;;;35.80;85.70;;;;;;5050145;28;20964;-70
2022/06/23 11:19:20;;;;;;;7.60;4.40;;;36.20;84.60;;;;;;5050489;28;20440;-70
2022/06/23 11:22:02;;;;;;;10.10;4.53;;;36.40;82.10;;;;;;5049797;28;20463;-69
2022/06/23 11:24:41;;;;;;;8.83;4.50;;;35.40;81.20;;;;;;5047177;28;20444;-70
2022/06/23 11:27:17;;;;;;;9.07;4.63;;;35.20;83.00;;;;;;5044231;28;20447;-68
2022/06/23 11:29:58;;;;;;;6.30;3.97;;;34.00;85.60;;;;;;5050110;28;20976;-71
2022/06/23 11:32:38;;;;;;;9.60;4.70;;;34.00;90.00;;;;;;5050083;28;20464;-70
2022/06/23 11:35:18;;;;;;;5.00;3.90;;;34.40;90.70;;;;;;5050158;28;20848;-70
2022/06/23 11:38:04;;;;;;;7.40;4.20;;;35.20;90.50;;;;;;5050223;28;20505;-70
2022/06/23 11:40:45;;;;;;;7.50;3.73;;;35.70;86.80;;;;;;5049529;28;20458;-70
2022/06/23 11:43:19;;;;;;;8.10;4.17;;;36.70;82.70;;;;;;5050112;28;20875;-71
2022/06/23 11:45:58;;;;;;;8.30;4.43;;;36.90;79.50;;;;;;5049812;28;20530;-69
2022/06/23 11:48:54;;;;;;;6.67;5.00;;;37.10;78.90;;;;;;5049997;28;20557;-69
2022/06/23 11:51:33;;;;;;;7.97;3.47;;;37.10;75.40;;;;;;5049059;28;20448;-69
2022/06/23 11:54:19;;;;;;;7.53;3.40;;;37.40;77.40;;;;;;5049982;28;20865;-70
2022/06/23 11:57:01;;;;;;;6.80;4.27;;;37.90;76.10;;;;;;5049869;28;20829;-70
2022/06/23 11:59:41;;;;;;;8.30;3.80;;;37.50;74.70;;;;;;5049680;28;20814;-70
2022/06/23 12:02:08;;;;;;;9.43;4.47;;;36.70;71.00;;;;;;5049531;28;20472;-70
2022/06/23 12:04:58;;;;;;;6.90;4.37;;;35.00;76.60;;;;;;5044204;28;20453;-70
2022/06/23 12:07:54;;;;;;;9.40;4.10;;;34.00;78.50;;;;;;5025377;28;20456;-69
2022/06/23 12:10:25;;;;;;;7.97;4.60;;;34.10;88.90;;;;;;5037633;28;20539;-70
2022/06/23 12:12:54;;;;;;;7.73;4.40;;;34.80;84.10;;;;;;5037603;28;20473;-69
2022/06/23 12:15:26;;;;;;;5.87;4.00;;;36.00;81.80;;;;;;5041938;28;20567;-70
2022/06/23 12:17:57;;;;;;;10.00;4.20;;;36.70;78.00;;;;;;5048553;28;20830;-68
2022/06/23 12:20:33;;;;;;;6.37;3.33;;;37.80;78.50;;;;;;5036745;28;20475;-67
2022/06/23 12:23:06;;;;;;;15.20;3.70;;;38.20;65.80;;;;;;5029449;28;20474;-68
2022/06/23 12:25:40;;;;;;;9.60;3.50;;;37.70;67.50;;;;;;5033671;28;20488;-67
2022/06/23 12:28:20;;;;;;;8.17;3.63;;;37.10;67.30;;;;;;5048006;28;20458;-68
2022/06/23 12:30:54;;;;;;;8.00;4.30;;;37.10;77.20;;;;;;5033901;28;20447;-68
2022/06/23 12:33:29;;;;;;;9.03;4.40;;;37.60;67.80;;;;;;5041236;28;20474;-68
2022/06/23 12:36:03;;;;;;;8.63;4.20;;;37.40;74.30;;;;;;5043985;28;20485;-68
2022/06/23 12:38:35;;;;;;;7.53;3.50;;;37.80;73.60;;;;;;5045699;28;20447;-67
2022/06/23 12:41:08;;;;;;;8.63;3.10;;;38.40;75.60;;;;;;5046728;28;20453;-67
2022/06/23 12:43:42;;;;;;;9.27;4.30;;;38.90;72.40;;;;;;5046689;28;20470;-69
2022/06/23 12:46:17;;;;;;;7.93;4.03;;;39.20;69.10;;;;;;5043939;28;21012;-67
2022/06/23 12:49:19;;;;;;;9.97;3.83;;;39.70;63.80;;;;;;5029595;28;20436;-65
2022/06/23 12:51:59;;;;;;;8.13;4.27;;;39.30;65.80;;;;;;5009815;28;20483;-66
2022/06/23 12:54:43;;;;;;;7.50;3.77;;;39.80;61.90;;;;;;5029662;28;20487;-66
2022/06/23 12:57:21;;;;;;;7.07;3.30;;;40.00;59.70;;;;;;5030220;28;20452;-67
2022/06/23 12:59:51;;;;;;;8.07;3.80;;;40.00;63.10;;;;;;5036732;28;20982;-67
2022/06/23 13:02:28;;;;;;;7.33;3.63;;;40.30;64.60;;;;;;5038927;28;20556;-67
2022/06/23 13:05:03;;;;;;;7.27;3.77;;;40.40;57.80;;;;;;5040589;28;20467;-67
2022/06/23 13:07:36;;;;;;;5.07;3.20;;;39.80;56.30;;;;;;5041622;28;20460;-67
2022/06/23 13:10:11;;;;;;;9.97;3.60;;;39.00;57.30;;;;;;5041723;28;20558;-68
2022/06/23 13:12:48;;;;;;;5.60;3.20;;;39.20;59.30;;;;;;5049936;28;20498;-67
2022/06/23 13:15:24;;;;;;;8.27;3.80;;;38.00;58.90;;;;;;5047203;28;20949;-67
2022/06/23 13:17:57;;;;;;;9.77;3.73;;;37.90;64.20;;;;;;5032923;28;20466;-68
2022/06/23 13:20:29;;;;;;;7.03;3.63;;;38.60;61.50;;;;;;5035646;28;20455;-68
2022/06/23 13:23:00;;;;;;;9.50;3.67;;;39.70;62.70;;;;;;5049095;28;20468;-68
2022/06/23 13:25:33;;;;;;;7.30;4.00;;;39.40;55.20;;;;;;5048421;28;21328;-68
2022/06/23 13:28:02;;;;;;;11.20;3.83;;;38.20;57.40;;;;;;5051456;28;20452;-67